Flight Track Log - Related Links

Times and Time Zones

All times are in EDT time to prevent confusion due to time zone crossing. See the AAL2345 flight status page for this flight to view local times or setup timezone preferences in your user account.

Time Position Orientation Groundspeed Altitude Reporting Facility
EDT Latitude Longitude Course Direction KTS MPH feet Rate Location/Type
08:39PM 41.9667 -87.8667 207° Southwest 179 206 2,100  Level Chicago TRACON
08:40PM 41.9167 -87.8000 135° Southeast 248 285 3,900 1,377 Climbing Chicago TRACON
08:41PM 41.8625 -87.7717 159° South 261 300 4,900 1,452 Climbing Chicago Center
08:42PM 41.7650 -87.7675 178° South 289 333 6,900 2,274 Climbing Chicago Center
08:43PM 41.5514 -88.4134 194° South  Level Estimated
08:43PM 41.6997 -87.8400 220° Southwest 306 352 9,600  Level Chicago Center
08:44PM 41.4651 -88.5140 207° Southwest  Level Estimated
08:44PM 41.6333 -87.9139 220° Southwest 312 359 12,400  Level Chicago Center
08:45PM 41.5683 -87.9906 221° Southwest 316 364 14,400 1,597 Climbing Chicago Center
08:46PM 41.4747 -88.0989 221° Southwest 397 457 15,700 1,645 Climbing Chicago Center
08:47PM 41.3842 -88.1878 216° Southwest 425 489 17,800 1,984 Climbing Chicago Center
08:48PM 41.2711 -88.2411 200° South 439 505 19,800 1,935 Climbing Chicago Center
08:49PM 41.1539 -88.2933 199° South 446 513 21,800 2,064 Climbing Chicago Center
08:50PM 41.0103 -88.3575 199° South 454 522 24,100 1,824 Climbing Chicago Center
08:51PM 40.8881 -88.4131 199° South 464 534 25,600 1,258 Climbing Chicago Center
08:52PM 40.7628 -88.4689 199° South 474 545 26,700 1,306 Climbing Chicago Center
08:53PM 40.6333 -88.5267 199° South 490 564 28,300 1,161 Climbing Chicago Center
08:54PM 40.5044 -88.5847 199° South 493 567 29,100 1,016 Climbing Chicago Center
08:55PM 40.3569 -88.6486 198° South 506 582 30,400 1,258 Climbing Chicago Center
08:56PM 40.2417 -88.7419 212° Southwest 482 555 31,700 774 Climbing Chicago Center
08:57PM 40.1408 -88.8492 219° Southwest 468 539 32,000 145 Climbing Chicago Center
08:58PM 40.0175 -88.9742 218° Southwest 466 536 32,000  Level Chicago Center
08:59PM 39.9156 -89.0786 218° Southwest 465 535 32,000  Level Chicago Center
09:00PM 39.8319 -89.1653 219° Southwest 468 539 32,000 54 Level Kansas City Center
09:01PM 39.7292 -89.2700 218° Southwest 468 539 32,100 49 Climbing Kansas City Center
09:02PM 39.6281 -89.3714 218° Southwest 471 542 32,100  Level Kansas City Center
09:03PM 39.5267 -89.4739 218° Southwest 466 536 32,100  Level Kansas City Center
09:04PM 39.4250 -89.5772 218° Southwest 465 535 32,100  Level Kansas City Center
09:05PM 39.3219 -89.6792 217° Southwest 466 536 32,100  Level Kansas City Center
09:06PM 39.2008 -89.8006 218° Southwest 462 532 32,100 -585 Level Kansas City Center
09:07PM 39.0956 -89.9039 217° Southwest 462 532 30,900 -1,024 Descending Kansas City Center
09:08PM 38.9958 -90.0058 218° Southwest 470 541 30,000 -429 Descending Kansas City Center
09:10PM 38.8983 -90.1403 227° Southwest 471 542 30,000  Level Kansas City Center
09:11PM 38.8097 -90.2625 227° Southwest 467 537 30,000  Level Kansas City Center
09:12PM 38.7203 -90.3836 227° Southwest 466 536 30,000 -793 Level Kansas City Center
09:13PM 38.6292 -90.5058 226° Southwest 469 540 28,400 -960 Descending Kansas City Center
09:14PM 38.5369 -90.6289 226° Southwest 473 544 28,000 -190 Descending Kansas City Center
09:15PM 38.4425 -90.7578 227° Southwest 498 573 28,000  Level Kansas City Center
09:16PM 38.3500 -90.8819 226° Southwest 491 565 28,000  Level Kansas City Center
09:17PM 38.2400 -91.0286 226° Southwest 483 556 28,000  Level Kansas City Center
09:18PM 38.1458 -91.1514 226° Southwest 477 549 28,000  Level Kansas City Center
09:19PM 38.0536 -91.2708 226° Southwest 473 544 28,000  Level Kansas City Center
09:20PM 37.9625 -91.3897 226° Southwest 471 542 28,000  Level Kansas City Center
09:21PM 37.8714 -91.5106 226° Southwest 470 541 28,000  Level Kansas City Center
09:22PM 37.7819 -91.6306 227° Southwest 467 537 28,000  Level Kansas City Center
09:23PM 37.6914 -91.7475 226° Southwest 464 534 28,000  Level Kansas City Center
09:24PM 37.6028 -91.8647 226° Southwest 459 528 28,000  Level Kansas City Center
09:25PM 37.5117 -91.9808 225° Southwest 460 529 28,000  Level Kansas City Center
09:26PM 37.4181 -92.0897 223° Southwest 456 525 28,000  Level Kansas City Center
09:27PM 37.3033 -92.2153 221° Southwest 453 521 28,000  Level Kansas City Center
09:28PM 37.2069 -92.3231 222° Southwest 459 528 28,000  Level Kansas City Center
09:29PM 37.1111 -92.4292 221° Southwest 458 527 28,000  Level Kansas City Center
09:30PM 37.0136 -92.5356 221° Southwest 461 531 28,000  Level Kansas City Center
09:31PM 36.9175 -92.6408 221° Southwest 459 528 28,000  Level Kansas City Center
09:32PM 36.8211 -92.7453 221° Southwest 459 528 28,000  Level Kansas City Center
09:33PM 36.7253 -92.8503 221° Southwest 458 527 28,000  Level Kansas City Center
09:34PM 36.6275 -92.9550 221° Southwest 461 531 28,000  Level Kansas City Center
09:35PM 36.5211 -93.0717 221° Southwest 458 527 28,000  Level Kansas City Center
09:36PM 36.4242 -93.1747 221° Southwest 459 528 28,000  Level Kansas City Center
09:37PM 36.3222 -93.2883 222° Southwest 467 537 28,000  Level Memphis Center
09:38PM 36.2261 -93.3903 221° Southwest 467 537 28,000  Level Memphis Center
09:39PM 36.1297 -93.4947 221° Southwest 462 532 28,000  Level Memphis Center
09:40PM 36.0311 -93.5961 220° Southwest 462 532 28,000  Level Memphis Center
09:41PM 35.9344 -93.7000 221° Southwest 462 532 28,000  Level Memphis Center
09:42PM 35.8381 -93.8011 220° Southwest 462 532 28,000  Level Memphis Center
09:43PM 35.7497 -93.8972 221° Southwest 468 539 28,000  Level Memphis Center
09:44PM 35.6511 -93.9978 220° Southwest 468 539 28,000  Level Memphis Center
09:45PM 35.5519 -94.1006 220° Southwest 468 539 28,000  Level Memphis Center
09:46PM 35.4531 -94.2031 220° Southwest 468 539 28,000  Level Memphis Center
09:47PM 35.3517 -94.3081 220° Southwest 468 539 28,000  Level Memphis Center
09:48PM 35.2542 -94.4153 222° Southwest 474 545 28,000  Level Memphis Center
09:49PM 35.1547 -94.5222 221° Southwest 474 545 28,000  Level Memphis Center
09:50PM 35.0931 -94.5919 223° Southwest 466 536 28,000  Level Fort Worth Center
09:51PM 34.9972 -94.6992 223° Southwest 460 529 28,000  Level Fort Worth Center
09:52PM 34.8994 -94.8008 220° Southwest 460 529 28,000  Level Fort Worth Center
09:53PM 34.7892 -94.9231 222° Southwest 476 548 28,000  Level Fort Worth Center
09:54PM 34.6931 -95.0244 221° Southwest 476 548 28,000  Level Fort Worth Center
09:55PM 34.5950 -95.1281 221° Southwest 476 548 28,000  Level Fort Worth Center
09:56PM 34.5008 -95.2314 222° Southwest 476 548 28,000  Level Fort Worth Center
09:57PM 34.4044 -95.3294 220° Southwest 470 541 28,000  Level Fort Worth Center
09:58PM 34.3142 -95.4297 223° Southwest 463 533 28,000  Level Fort Worth Center
09:59PM 34.2156 -95.5272 219° Southwest 455 524 28,000 -100 Level Fort Worth Center
10:00PM 34.1211 -95.6297 222° Southwest 450 518 27,800 -1,150 Descending Fort Worth Center
10:01PM 34.0408 -95.7117 220° Southwest 447 514 25,700 -2,200 Descending Fort Worth Center
10:02PM 33.9503 -95.8061 221° Southwest 436 502 23,400 -2,300 Descending Fort Worth Center
10:03PM 33.8617 -95.8978 221° Southwest 431 496 21,100 -2,350 Descending Fort Worth Center
10:04PM 33.7667 -95.9967 221° Southwest 425 489 18,700 -2,250 Descending Fort Worth Center
10:05PM 33.6842 -96.0831 221° Southwest 411 473 16,600 -1,750 Descending Fort Worth Center
10:06PM 33.6058 -96.1664 222° Southwest 392 451 15,200 -1,550 Descending Fort Worth Center
10:07PM 33.5333 -96.2397 220° Southwest 371 427 13,500 -1,400 Descending Fort Worth Center
10:08PM 33.4694 -96.3178 226° Southwest 342 394 12,400 -1,250 Descending Fort Worth Center
10:09PM 33.4158 -96.4031 233° Southwest 329 379 11,000 -1,100 Descending Fort Worth Center
10:10PM 33.3664 -96.4881 235° Southwest 323 372 10,200 -1,132 Descending Fort Worth Center
10:11PM 33.3333 -96.5500 237° Southwest 306 352 9,000 -1,358 Descending Dallas / Fort Worth TRACON
10:12PM 33.2833 -96.6333 234° Southwest 283 326 7,800 -1,211 Descending Dallas / Fort Worth TRACON
10:13PM 33.2333 -96.7000 228° Southwest 276 318 6,700 -1,135 Descending Dallas / Fort Worth TRACON
10:13PM 33.2261 -96.7231 249° West 287 330 6,400 -975 Descending Fort Worth Center
10:14PM 33.1806 -96.7928 232° Southwest 281 323 5,400 -694 Descending Fort Worth Center
10:15PM 33.1453 -96.8578 237° Southwest 270 311 5,000 -900 Descending Fort Worth Center
10:16PM 33.1167 -96.9000 231° Southwest 218 251 3,900 -1,355 Descending Dallas / Fort Worth TRACON
10:16PM 33.0833 -96.9500 232° Southwest 219 252 2,900 -905 Descending Dallas / Fort Worth TRACON
10:18PM 33.0333 -97.0000 220° Southwest 185 213 2,000 -455 Descending Dallas / Fort Worth TRACON
10:19PM 33.0000 -97.0167 203° Southwest 132 152 1,900 -300 Descending Dallas / Fort Worth TRACON
10:20PM 32.9500 -97.0167 180° South 125 144 1,400 -579 Descending Dallas / Fort Worth TRACON
10:21PM 32.9333 -97.0167 180° South 129 148 800 -667 Descending Dallas / Fort Worth TRACON
10:23PM 32.8968 -97.0380 232° Southwest  Level Estimated

Login

Don't have an account? Register now (free) for customized features, flight alerts, and more!